Main page
METAR-TAF:

METAR-TAF

Airports :

Leuchars, Scotland

Leuchars Station

latitude: 56-23N, longitude: 002-52W, elevation: 12 m

Current weather observation

The report was made 20 minutes ago, at 23:50 UTC
Wind 1 kt from the West/Northwest
Temperature 10°C
Humidity 87%
Pressure 1015 hPa
Visibility 10 km or more
no clouds below 1500 m and no cumulonimbus

METAR: EGQL 192350Z 29001KT CAVOK 10/08 Q1015 BLU

Time: 01:10 (00:10 UTC)

Forecast

The report was made 1 hour and 21 minutes ago, at 22:49 UTC
Forecast valid from 20 at 00 UTC to 20 at 09 UTC
Wind 6 kt from the West/Southwest
Visibility 10 km or more
Scattered clouds at a height of 4000 ft
Becoming
from 20 at 03 UTC to 20 at 06 UTC
Broken clouds at a height of 2400 ft
Probability 40% :
Temporary
from 20 at 06 UTC to 20 at 09 UTC
Scattered clouds at a height of 1200 ft
Broken clouds at a height of 2000 ft

TAF: EGQL 192249Z 2000/2009 25006KT 9999 SCT040 BECMG 2003/2006 BKN024 PROB40 TEMPO 2006/2009 SCT012 BKN020

Weather observations and forecasts of more than 4000 airports (METAR and TAF reports).

The available stations are represented by yellow and red dots on the map.

Hover mouse over dot to see the name of the station.

Then click to see weather observations and forecasts.

To change the map : click on the green buttons with a black cross to zoom in, on the green button with a dash to zoom out, or on the green arrows for adjacent maps.


METAR-TAF: